Time;durP1;ratioP1;P1;durP2;ratioP2;P2;SDS_P1;SDS_P2;PMS_P1;PMS_P2;Temp;Humidity;BMP_temperature;BMP_pressure;BME280_temperature;BME280_humidity;BME280_pressure;Samples;Min_cycle;Max_cycle;Signal;HPM_P1;HPM_P2
2022/03/03 00:02:23;;;;;;;38.97;31.40;;;8.10;71.80;;;;;;5091133;28;20077;-87
2022/03/03 00:04:50;;;;;;;41.72;30.50;;;8.10;71.90;;;;;;5088232;28;20048;-89
2022/03/03 00:07:17;;;;;;;39.88;30.80;;;8.10;71.90;;;;;;5089744;28;20055;-88
2022/03/03 00:09:44;;;;;;;38.53;31.02;;;8.10;71.90;;;;;;5089847;28;20044;-88
2022/03/03 00:12:11;;;;;;;41.10;32.08;;;8.10;71.90;;;;;;5089845;28;20044;-87
2022/03/03 00:14:38;;;;;;;39.00;30.88;;;8.10;71.90;;;;;;5089694;28;20067;-87
2022/03/03 00:17:05;;;;;;;38.55;30.60;;;8.10;71.90;;;;;;5091831;28;20048;-87
2022/03/03 00:19:32;;;;;;;40.08;31.25;;;8.10;71.90;;;;;;5087739;28;20044;-87
2022/03/03 00:21:59;;;;;;;40.30;31.23;;;8.10;71.90;;;;;;5089734;28;20101;-87
2022/03/03 00:24:26;;;;;;;40.17;31.73;;;8.10;71.90;;;;;;5093051;28;20109;-88
2022/03/03 00:26:52;;;;;;;40.45;30.77;;;8.10;71.90;;;;;;5093321;28;20056;-87
2022/03/03 00:29:19;;;;;;;38.83;30.83;;;8.10;71.90;;;;;;5094765;28;20056;-88
2022/03/03 00:31:46;;;;;;;42.25;32.22;;;8.00;71.90;;;;;;5092429;28;20149;-87
2022/03/03 00:34:13;;;;;;;38.72;31.05;;;8.00;71.90;;;;;;5092761;28;20097;-87
2022/03/03 00:36:41;;;;;;;39.67;31.63;;;8.00;72.00;;;;;;5091828;28;20044;-87
2022/03/03 00:39:08;;;;;;;41.30;32.95;;;8.00;72.00;;;;;;5093047;28;20048;-87
2022/03/03 00:41:36;;;;;;;43.55;32.70;;;8.00;72.00;;;;;;5093232;28;20101;-87
2022/03/03 00:44:05;;;;;;;42.72;32.47;;;8.00;72.00;;;;;;5095053;28;20055;-87
2022/03/03 00:46:34;;;;;;;41.58;32.45;;;8.00;72.10;;;;;;5092712;28;20094;-88
2022/03/03 00:49:01;;;;;;;45.78;33.35;;;8.00;72.10;;;;;;5092427;28;20044;-87
2022/03/03 00:51:28;;;;;;;38.05;30.50;;;8.00;72.10;;;;;;5092736;28;20094;-87
2022/03/03 00:53:55;;;;;;;44.50;32.20;;;8.00;72.20;;;;;;5092870;28;20077;-88
2022/03/03 00:56:22;;;;;;;44.25;31.60;;;8.00;72.20;;;;;;5094081;28;20088;-87
2022/03/03 00:58:50;;;;;;;40.92;30.83;;;7.90;72.20;;;;;;5093512;28;20056;-87
2022/03/03 01:01:18;;;;;;;41.78;32.08;;;7.90;72.20;;;;;;5092567;28;20109;-87
2022/03/03 01:03:45;;;;;;;41.53;32.47;;;7.90;72.30;;;;;;5092229;28;20048;-87
2022/03/03 01:06:12;;;;;;;41.88;32.17;;;7.90;72.30;;;;;;5092409;28;20044;-88
2022/03/03 01:08:39;;;;;;;40.05;31.92;;;7.90;72.30;;;;;;5092512;28;20056;-88
2022/03/03 01:11:07;;;;;;;43.38;33.22;;;7.90;72.30;;;;;;5094529;28;20056;-87
2022/03/03 01:13:34;;;;;;;38.38;30.98;;;7.90;72.40;;;;;;5092268;28;20047;-87
2022/03/03 01:16:01;;;;;;;42.95;31.95;;;7.90;72.40;;;;;;5092364;28;20040;-87
2022/03/03 01:18:28;;;;;;;43.17;30.77;;;7.90;72.40;;;;;;5091838;28;20048;-87
2022/03/03 01:20:57;;;;;;;43.90;32.30;;;7.90;72.40;;;;;;5092226;28;20444;-87
2022/03/03 01:23:24;;;;;;;38.65;30.95;;;7.90;72.40;;;;;;5093671;28;20519;-87
2022/03/03 01:25:51;;;;;;;42.00;32.53;;;7.90;72.40;;;;;;5093029;28;20464;-87
2022/03/03 01:28:18;;;;;;;38.95;29.08;;;7.80;72.40;;;;;;5092040;28;20479;-87
2022/03/03 01:30:45;;;;;;;39.72;30.90;;;7.90;72.40;;;;;;5092048;28;20074;-87
2022/03/03 01:33:12;;;;;;;39.60;30.80;;;7.90;72.40;;;;;;5091746;28;20475;-87
2022/03/03 01:35:40;;;;;;;37.42;29.15;;;7.80;72.40;;;;;;5091782;28;20414;-87
2022/03/03 01:38:08;;;;;;;39.65;31.02;;;7.80;72.40;;;;;;5093067;28;20104;-87
2022/03/03 01:40:36;;;;;;;38.55;30.45;;;7.80;72.40;;;;;;5090247;28;20048;-87
2022/03/03 01:43:04;;;;;;;40.60;30.95;;;7.80;72.40;;;;;;5091707;28;20040;-87
2022/03/03 01:45:31;;;;;;;34.75;30.27;;;7.70;72.40;;;;;;5091741;28;20048;-88
2022/03/03 01:47:58;;;;;;;44.05;31.70;;;7.70;72.40;;;;;;5091436;28;20040;-87
2022/03/03 01:50:26;;;;;;;40.85;30.88;;;7.70;72.40;;;;;;5092722;28;20468;-88
2022/03/03 01:52:53;;;;;;;39.40;30.20;;;7.70;72.40;;;;;;5093006;28;20048;-87
2022/03/03 01:55:20;;;;;;;40.05;31.58;;;7.70;72.40;;;;;;5091471;28;20130;-88
2022/03/03 01:57:49;;;;;;;40.90;31.35;;;7.70;72.50;;;;;;5091426;28;20048;-87
2022/03/03 02:00:17;;;;;;;40.55;32.10;;;7.70;72.50;;;;;;5091715;28;20471;-87
2022/03/03 02:02:45;;;;;;;43.35;30.60;;;7.60;72.50;;;;;;5091267;28;20464;-87
2022/03/03 02:05:12;;;;;;;39.53;31.65;;;7.60;72.50;;;;;;5092388;28;20087;-87
2022/03/03 02:07:39;;;;;;;41.22;31.08;;;7.60;72.50;;;;;;5091183;28;20048;-87
2022/03/03 02:10:06;;;;;;;37.38;30.02;;;7.60;72.60;;;;;;5091244;28;20048;-87
2022/03/03 02:12:33;;;;;;;38.47;31.13;;;7.60;72.60;;;;;;5091312;28;20051;-87
2022/03/03 02:15:01;;;;;;;39.08;31.38;;;7.50;72.60;;;;;;5089518;28;20040;-87
2022/03/03 02:17:28;;;;;;;36.78;29.50;;;7.50;72.60;;;;;;5091806;28;20505;-87
2022/03/03 02:19:55;;;;;;;39.45;30.30;;;7.50;72.70;;;;;;5091491;28;20399;-87
2022/03/03 02:22:22;;;;;;;40.30;28.85;;;7.50;72.70;;;;;;5091083;28;20077;-87
2022/03/03 02:24:49;;;;;;;37.15;30.08;;;7.50;72.80;;;;;;5090732;28;20534;-87
2022/03/03 02:27:17;;;;;;;38.33;29.40;;;7.40;72.80;;;;;;5091034;28;20052;-87
2022/03/03 02:29:44;;;;;;;40.88;31.60;;;7.40;72.90;;;;;;5090779;28;20575;-86
2022/03/03 02:32:11;;;;;;;37.75;29.98;;;7.40;72.90;;;;;;5092973;28;20059;-87
2022/03/03 02:34:46;;;;;;;46.08;30.80;;;7.40;72.90;;;;;;5090816;28;20044;-87
2022/03/03 02:37:12;;;;;;;41.08;31.27;;;7.40;73.00;;;;;;5090827;28;20063;-87
2022/03/03 02:39:40;;;;;;;47.17;31.25;;;7.40;73.00;;;;;;5090605;28;20089;-87
2022/03/03 02:42:09;;;;;;;49.80;34.38;;;7.40;73.10;;;;;;5090783;28;20101;-86
2022/03/03 02:44:36;;;;;;;50.58;33.13;;;7.40;73.10;;;;;;5090257;28;20134;-87
2022/03/03 02:47:03;;;;;;;47.38;33.30;;;7.30;73.20;;;;;;5092541;28;20043;-87
2022/03/03 02:49:30;;;;;;;48.70;32.92;;;7.30;73.20;;;;;;5089348;28;20113;-86
2022/03/03 02:51:57;;;;;;;51.47;33.45;;;7.30;73.20;;;;;;5090544;28;20036;-87
2022/03/03 02:54:24;;;;;;;47.22;32.75;;;7.30;73.30;;;;;;5088969;28;20406;-87
2022/03/03 02:59:36;;;;;;;46.15;30.58;;;7.30;73.40;;;;;;5090125;28;20109;-87
2022/03/03 03:02:03;;;;;;;47.33;32.95;;;7.30;73.40;;;;;;5092576;28;20047;-87
2022/03/03 03:04:30;;;;;;;44.50;31.38;;;7.20;73.40;;;;;;5090429;28;20051;-87
2022/03/03 03:06:57;;;;;;;43.10;32.25;;;7.30;73.50;;;;;;5090207;28;20044;-87
2022/03/03 03:09:24;;;;;;;44.13;31.52;;;7.20;73.40;;;;;;5090392;28;20048;-87
2022/03/03 03:11:51;;;;;;;40.47;29.63;;;7.20;73.50;;;;;;5090379;28;20090;-87
2022/03/03 03:14:18;;;;;;;48.60;32.95;;;7.20;73.50;;;;;;5091860;28;20055;-86
2022/03/03 03:16:45;;;;;;;43.78;32.47;;;7.20;73.50;;;;;;5119039;27;20101;-87
2022/03/03 03:19:12;;;;;;;41.08;30.50;;;7.20;73.50;;;;;;5090026;28;20051;-87
2022/03/03 03:21:39;;;;;;;44.90;32.72;;;7.20;73.60;;;;;;5090032;28;20056;-87
2022/03/03 03:24:06;;;;;;;44.00;31.90;;;7.20;73.60;;;;;;5090197;28;20048;-87
2022/03/03 03:26:33;;;;;;;40.78;30.50;;;7.10;73.60;;;;;;5090066;28;20514;-87
2022/03/03 03:29:00;;;;;;;43.65;29.98;;;7.10;73.60;;;;;;5091992;28;20044;-87
2022/03/03 03:31:27;;;;;;;46.42;32.97;;;7.10;73.60;;;;;;5090059;28;20105;-87
2022/03/03 03:33:54;;;;;;;45.03;30.73;;;7.10;73.60;;;;;;5088577;28;20047;-87
2022/03/03 03:36:20;;;;;;;39.05;30.48;;;7.10;73.60;;;;;;5090149;28;20102;-87
2022/03/03 03:38:47;;;;;;;39.22;30.67;;;7.10;73.60;;;;;;5073463;28;20044;-87
2022/03/03 03:41:14;;;;;;;37.38;29.52;;;7.10;73.70;;;;;;5087973;28;20051;-87
2022/03/03 03:43:41;;;;;;;38.67;29.55;;;7.10;73.70;;;;;;5089688;28;20114;-87
2022/03/03 03:46:08;;;;;;;41.75;29.98;;;7.10;73.70;;;;;;5089892;28;20044;-87
2022/03/03 03:48:35;;;;;;;38.65;30.42;;;7.10;73.70;;;;;;5089846;28;20433;-87
2022/03/03 03:51:02;;;;;;;39.08;29.58;;;7.10;73.70;;;;;;5090072;28;20406;-87
2022/03/03 03:53:29;;;;;;;37.83;29.75;;;7.10;73.70;;;;;;5090598;28;20048;-87
2022/03/03 03:55:56;;;;;;;36.50;29.42;;;7.00;73.70;;;;;;5091582;28;20040;-86
2022/03/03 03:58:23;;;;;;;37.78;29.40;;;7.10;73.70;;;;;;5091963;28;20097;-86
2022/03/03 04:00:50;;;;;;;39.58;29.13;;;7.00;73.70;;;;;;5093740;28;20044;-88
2022/03/03 04:03:18;;;;;;;39.95;29.55;;;7.10;73.70;;;;;;5093783;28;20040;-87
2022/03/03 04:05:45;;;;;;;39.13;29.45;;;7.10;73.70;;;;;;5093813;28;20052;-87
2022/03/03 04:08:12;;;;;;;42.90;31.02;;;7.10;73.70;;;;;;5095741;28;20493;-86
2022/03/03 04:10:39;;;;;;;39.63;29.85;;;7.10;73.70;;;;;;5093544;28;20052;-88
2022/03/03 04:13:06;;;;;;;37.50;29.65;;;7.10;73.70;;;;;;5091730;28;20044;-87
2022/03/03 04:15:32;;;;;;;42.33;30.05;;;7.10;73.70;;;;;;5093462;28;20044;-87
2022/03/03 04:17:59;;;;;;;36.42;29.73;;;7.10;73.70;;;;;;5092338;28;20513;-87
2022/03/03 04:20:27;;;;;;;37.28;30.65;;;7.10;73.70;;;;;;5094382;28;20048;-87
2022/03/03 04:22:54;;;;;;;38.55;30.30;;;7.00;73.70;;;;;;5094942;28;20040;-87
2022/03/03 04:25:22;;;;;;;39.65;29.45;;;7.00;73.70;;;;;;5093066;28;20059;-87
2022/03/03 04:27:49;;;;;;;37.85;29.52;;;7.10;73.70;;;;;;5092954;28;20093;-86
2022/03/03 04:30:16;;;;;;;41.40;29.60;;;7.10;73.70;;;;;;5093149;28;20109;-87
2022/03/03 04:32:43;;;;;;;37.42;28.60;;;7.00;73.70;;;;;;5093402;28;20040;-88
2022/03/03 04:35:10;;;;;;;36.72;30.02;;;7.00;73.60;;;;;;5095183;28;20048;-88
2022/03/03 04:37:38;;;;;;;36.67;28.75;;;7.00;73.70;;;;;;5093008;28;20098;-87
2022/03/03 04:40:06;;;;;;;39.47;30.77;;;7.00;73.70;;;;;;5092631;28;20044;-88
2022/03/03 04:42:33;;;;;;;40.15;30.63;;;7.00;73.70;;;;;;5092970;28;20048;-88
2022/03/03 04:45:00;;;;;;;40.30;30.55;;;7.00;73.70;;;;;;5125675;27;20048;-87
2022/03/03 04:47:28;;;;;;;40.50;29.75;;;7.00;73.70;;;;;;5093804;28;20469;-86
2022/03/03 04:49:55;;;;;;;35.92;29.92;;;7.00;73.70;;;;;;5094472;28;20073;-87
2022/03/03 04:52:22;;;;;;;34.92;29.27;;;7.00;73.70;;;;;;5091372;28;20048;-87
2022/03/03 04:54:49;;;;;;;34.72;29.23;;;7.00;73.70;;;;;;5092253;28;20048;-86
2022/03/03 04:57:17;;;;;;;38.03;29.23;;;7.00;73.70;;;;;;5092808;28;20505;-87
2022/03/03 04:59:44;;;;;;;36.25;29.52;;;7.00;73.70;;;;;;5091519;28;20102;-87
2022/03/03 05:02:11;;;;;;;37.95;30.00;;;7.00;73.70;;;;;;5094695;28;20050;-87
2022/03/03 05:04:38;;;;;;;36.92;30.27;;;7.00;73.70;;;;;;5092578;28;20095;-87
2022/03/03 05:07:05;;;;;;;37.50;30.17;;;7.00;73.70;;;;;;5092427;28;20563;-87
2022/03/03 05:09:32;;;;;;;37.13;30.38;;;6.90;73.70;;;;;;5091770;28;20052;-87
2022/03/03 05:11:59;;;;;;;39.40;28.73;;;6.90;73.70;;;;;;5091273;28;20546;-87
2022/03/03 05:14:27;;;;;;;36.35;29.75;;;6.90;73.70;;;;;;5093425;28;20052;-87
2022/03/03 05:16:54;;;;;;;39.05;29.92;;;6.90;73.80;;;;;;5093839;28;20048;-87
2022/03/03 05:19:21;;;;;;;39.80;30.25;;;6.90;73.80;;;;;;5092100;28;20105;-87
2022/03/03 05:21:48;;;;;;;35.25;29.80;;;6.90;73.80;;;;;;5092211;28;20445;-87
2022/03/03 05:24:15;;;;;;;36.42;29.15;;;6.90;73.80;;;;;;5091920;28;20101;-87
2022/03/03 05:26:41;;;;;;;37.60;29.75;;;6.90;73.80;;;;;;5091994;28;20442;-87
2022/03/03 05:29:08;;;;;;;38.22;29.30;;;6.90;73.80;;;;;;5094295;28;20640;-87
2022/03/03 05:31:36;;;;;;;39.55;29.95;;;6.90;73.80;;;;;;5091908;28;20055;-87
2022/03/03 05:34:03;;;;;;;38.60;30.45;;;6.90;73.80;;;;;;5091995;28;20040;-89
2022/03/03 05:36:30;;;;;;;36.75;30.42;;;6.90;73.80;;;;;;5091926;28;20506;-88
2022/03/03 05:38:58;;;;;;;40.65;31.00;;;6.90;73.90;;;;;;5091578;28;20047;-87
2022/03/03 05:41:25;;;;;;;37.50;30.50;;;6.80;73.90;;;;;;5093270;28;20055;-87
2022/03/03 05:43:51;;;;;;;37.20;29.70;;;6.80;73.90;;;;;;5092793;28;20048;-88
2022/03/03 05:46:19;;;;;;;39.30;29.67;;;6.80;73.90;;;;;;5091628;28;20210;-87
2022/03/03 05:48:48;;;;;;;38.05;30.52;;;6.70;73.90;;;;;;5091703;28;20505;-89
2022/03/03 05:51:17;;;;;;;35.33;28.58;;;6.80;74.00;;;;;;5091742;28;20054;-88
2022/03/03 05:53:44;;;;;;;38.35;30.63;;;6.70;74.00;;;;;;5091416;28;20051;-88
2022/03/03 05:56:14;;;;;;;36.28;29.75;;;6.70;74.10;;;;;;5093633;28;20077;-87
2022/03/03 05:58:44;;;;;;;41.97;30.80;;;6.70;74.10;;;;;;5091456;28;20048;-87
2022/03/03 06:01:13;;;;;;;37.47;30.33;;;6.70;74.10;;;;;;5091351;28;20044;-86
2022/03/03 06:03:41;;;;;;;34.63;28.80;;;6.60;74.20;;;;;;5090433;28;20127;-87
2022/03/03 06:06:15;;;;;;;39.95;31.17;;;6.60;74.20;;;;;;5091418;28;20040;-88
2022/03/03 06:08:52;;;;;;;38.13;28.77;;;6.60;74.20;;;;;;5090581;28;20044;-87
2022/03/03 06:11:21;;;;;;;38.03;30.00;;;6.60;74.30;;;;;;5089456;28;20052;-86
2022/03/03 06:13:52;;;;;;;43.08;31.10;;;6.60;74.30;;;;;;5090627;28;20044;-89
2022/03/03 06:16:20;;;;;;;38.45;30.02;;;6.60;74.30;;;;;;5091150;28;20459;-87
2022/03/03 06:18:48;;;;;;;39.03;29.60;;;6.60;74.40;;;;;;5089945;28;20040;-87
2022/03/03 06:21:17;;;;;;;39.90;31.33;;;6.60;74.40;;;;;;5090467;28;20052;-87
2022/03/03 06:23:44;;;;;;;35.97;29.23;;;6.50;74.40;;;;;;5090852;28;20448;-86
2022/03/03 06:26:15;;;;;;;36.70;29.50;;;6.50;74.40;;;;;;5092796;28;20510;-88
2022/03/03 06:28:42;;;;;;;38.78;29.65;;;6.50;74.40;;;;;;5091000;28;20048;-89
2022/03/03 06:31:08;;;;;;;41.47;30.30;;;6.50;74.40;;;;;;5090766;28;20052;-89
2022/03/03 06:33:36;;;;;;;38.67;29.63;;;6.40;74.40;;;;;;5090745;28;20054;-88
2022/03/03 06:36:03;;;;;;;39.72;30.05;;;6.50;74.40;;;;;;5090633;28;20101;-87
2022/03/03 06:38:31;;;;;;;37.85;30.63;;;6.40;74.40;;;;;;5091333;28;20088;-87
2022/03/03 06:41:05;;;;;;;35.30;29.55;;;6.40;74.50;;;;;;5091239;28;20048;-87
2022/03/03 06:43:34;;;;;;;38.15;30.05;;;6.40;74.50;;;;;;5090613;28;20056;-87
2022/03/03 06:46:02;;;;;;;37.40;30.25;;;6.40;74.50;;;;;;5090544;28;20047;-88
2022/03/03 06:48:30;;;;;;;36.85;29.75;;;6.40;74.50;;;;;;5090960;28;20051;-86
2022/03/03 06:50:57;;;;;;;37.20;30.10;;;6.40;74.50;;;;;;5089379;28;20106;-87
2022/03/03 06:53:29;;;;;;;39.72;31.02;;;6.40;74.50;;;;;;5092091;28;20113;-87
2022/03/03 06:56:05;;;;;;;38.90;30.55;;;6.40;74.60;;;;;;5092248;28;20052;-88
2022/03/03 06:58:33;;;;;;;38.08;30.50;;;6.40;74.60;;;;;;5090450;28;20043;-88
2022/03/03 07:01:12;;;;;;;38.88;30.55;;;6.30;74.60;;;;;;5088703;28;20407;-89
2022/03/03 07:03:42;;;;;;;38.88;30.65;;;6.30;74.60;;;;;;5090365;28;20048;-88
2022/03/03 07:06:09;;;;;;;40.97;32.03;;;6.30;74.60;;;;;;5090100;28;20056;-88
2022/03/03 07:08:38;;;;;;;37.75;30.40;;;6.30;74.60;;;;;;5090294;28;20044;-86
2022/03/03 07:11:07;;;;;;;38.67;30.88;;;6.30;74.60;;;;;;5092470;28;20055;-86
2022/03/03 07:13:34;;;;;;;39.97;30.42;;;6.30;74.70;;;;;;5090175;28;20570;-87
2022/03/03 07:16:36;;;;;;;36.00;30.05;;;6.30;74.70;;;;;;5090273;28;20101;-87
2022/03/03 07:19:05;;;;;;;39.13;30.52;;;6.30;74.70;;;;;;5024934;28;20144;-88
2022/03/03 07:22:07;;;;;;;43.10;33.03;;;6.30;74.70;;;;;;5024726;28;20065;-88
2022/03/03 07:24:51;;;;;;;42.30;33.03;;;6.30;74.70;;;;;;5031352;28;20562;-88
2022/03/03 07:27:24;;;;;;;40.53;31.63;;;6.30;74.70;;;;;;5017720;28;20053;-88
2022/03/03 07:29:59;;;;;;;41.73;31.83;;;6.30;74.80;;;;;;5014010;28;20300;-87
2022/03/03 07:32:38;;;;;;;41.17;32.17;;;6.20;74.80;;;;;;5029276;28;20049;-88
2022/03/03 07:35:10;;;;;;;40.05;30.88;;;6.30;74.80;;;;;;5032362;28;20053;-88
2022/03/03 07:37:52;;;;;;;40.75;31.25;;;6.30;74.80;;;;;;5033377;28;20052;-89
2022/03/03 07:40:19;;;;;;;39.58;31.92;;;6.30;74.90;;;;;;5032350;28;20061;-89
2022/03/03 07:42:53;;;;;;;43.92;31.90;;;6.30;74.80;;;;;;5032842;28;20045;-88
2022/03/03 07:45:21;;;;;;;41.75;33.28;;;6.40;74.90;;;;;;5033134;28;20530;-88
2022/03/03 07:47:53;;;;;;;42.13;34.42;;;6.40;74.90;;;;;;5017514;28;20103;-87
2022/03/03 07:50:21;;;;;;;44.05;33.90;;;6.30;75.00;;;;;;5013621;28;20523;-87
2022/03/03 07:52:53;;;;;;;42.45;33.85;;;6.40;75.00;;;;;;5030382;28;20096;-88
2022/03/03 07:55:20;;;;;;;43.92;32.75;;;6.40;75.10;;;;;;5044531;28;20059;-89
2022/03/03 07:58:00;;;;;;;49.00;35.08;;;6.40;75.10;;;;;;5092583;28;20044;-88
2022/03/03 08:00:33;;;;;;;45.03;33.22;;;6.40;75.10;;;;;;5093498;28;20113;-88
2022/03/03 08:03:05;;;;;;;43.97;34.25;;;6.40;75.10;;;;;;5093404;28;20535;-89
2022/03/03 08:05:32;;;;;;;46.50;34.65;;;6.50;75.20;;;;;;5093616;28;20055;-89
2022/03/03 08:08:02;;;;;;;43.17;33.78;;;6.50;75.20;;;;;;5093384;28;20051;-88
2022/03/03 08:10:31;;;;;;;42.45;33.70;;;6.50;75.20;;;;;;5093344;28;20109;-88
2022/03/03 08:12:59;;;;;;;43.35;34.92;;;6.50;75.20;;;;;;5093379;28;20512;-88
2022/03/03 08:15:26;;;;;;;48.65;35.55;;;6.50;75.20;;;;;;5091798;28;20497;-88
2022/03/03 08:17:54;;;;;;;45.38;34.88;;;6.60;75.30;;;;;;5091110;28;22407;-88
2022/03/03 08:20:22;;;;;;;42.78;33.85;;;6.60;75.40;;;;;;5094344;28;20410;-87
2022/03/03 08:22:49;;;;;;;45.33;37.35;;;6.60;75.40;;;;;;5093730;28;20052;-88
2022/03/03 08:25:17;;;;;;;48.47;37.28;;;6.70;75.50;;;;;;5093010;28;20472;-89
2022/03/03 08:27:45;;;;;;;45.58;35.78;;;6.70;75.50;;;;;;5092843;28;20048;-88
2022/03/03 08:30:13;;;;;;;46.80;36.03;;;6.70;75.50;;;;;;5092771;28;20520;-88
2022/03/03 08:32:44;;;;;;;51.10;36.22;;;6.80;75.60;;;;;;5092752;28;20154;-88
2022/03/03 08:35:17;;;;;;;44.95;36.30;;;6.80;75.60;;;;;;5109453;28;20048;-90
2022/03/03 08:37:50;;;;;;;41.53;34.00;;;6.90;75.60;;;;;;5089791;28;20114;-88
2022/03/03 08:40:17;;;;;;;44.67;36.45;;;6.90;75.60;;;;;;5092743;28;20403;-90
2022/03/03 08:42:51;;;;;;;43.25;35.30;;;6.90;75.60;;;;;;5092475;28;20066;-89
2022/03/03 08:45:19;;;;;;;;;;;6.90;75.60;;;;;;5091617;28;20109;-89
2022/03/03 08:47:59;;;;;;;41.92;33.75;;;6.90;75.60;;;;;;5092306;28;20356;-88
2022/03/03 08:50:31;;;;;;;42.75;34.30;;;6.90;75.60;;;;;;5090755;28;20048;-88
2022/03/03 08:53:00;;;;;;;48.17;34.38;;;7.00;75.60;;;;;;5092512;28;20059;-88
2022/03/03 08:55:27;;;;;;;39.72;32.78;;;7.10;75.50;;;;;;5092546;28;20105;-88
2022/03/03 08:57:54;;;;;;;40.08;31.40;;;7.10;75.40;;;;;;5092141;28;20039;-88
2022/03/03 09:00:22;;;;;;;40.78;33.50;;;7.20;75.40;;;;;;5092274;28;20055;-88
2022/03/03 09:02:50;;;;;;;37.60;31.58;;;7.10;75.30;;;;;;5092021;28;20502;-88
2022/03/03 09:05:17;;;;;;;38.72;31.95;;;7.20;75.30;;;;;;5090055;28;20040;-87
2022/03/03 09:07:44;;;;;;;43.47;34.90;;;7.20;75.20;;;;;;5089452;28;20044;-89
2022/03/03 09:10:12;;;;;;;50.95;38.47;;;7.30;75.20;;;;;;5093916;28;20097;-89
2022/03/03 09:12:39;;;;;;;41.80;32.22;;;7.40;75.20;;;;;;5101316;28;20093;-89
2022/03/03 09:15:07;;;;;;;42.05;33.63;;;7.40;75.30;;;;;;5092109;28;20036;-88
2022/03/03 09:17:36;;;;;;;45.20;34.92;;;7.40;75.30;;;;;;5091694;28;20390;-88
2022/03/03 09:20:06;;;;;;;45.28;35.78;;;7.50;75.30;;;;;;5093725;28;20097;-88
2022/03/03 09:22:33;;;;;;;44.05;35.75;;;7.50;75.20;;;;;;5092024;28;20090;-88
2022/03/03 09:25:01;;;;;;;44.65;35.28;;;7.60;75.30;;;;;;5089016;28;20044;-88
2022/03/03 09:27:29;;;;;;;44.63;35.10;;;7.60;75.30;;;;;;5091691;28;20464;-88
2022/03/03 09:29:55;;;;;;;43.13;34.03;;;7.70;75.30;;;;;;5090469;28;20051;-89
2022/03/03 09:32:22;;;;;;;47.50;36.90;;;7.70;75.30;;;;;;5092981;28;20574;-88
2022/03/03 09:34:50;;;;;;;42.15;33.50;;;7.80;75.20;;;;;;5092350;28;20052;-87
2022/03/03 09:37:16;;;;;;;42.63;35.28;;;7.90;75.30;;;;;;5091472;28;20099;-88
2022/03/03 09:39:45;;;;;;;40.88;34.38;;;7.90;75.20;;;;;;5091463;28;20465;-87
2022/03/03 09:42:13;;;;;;;48.20;35.88;;;7.90;75.20;;;;;;5091651;28;20086;-88
2022/03/03 09:44:40;;;;;;;53.47;39.40;;;8.00;75.20;;;;;;5091056;28;20131;-89
2022/03/03 09:47:08;;;;;;;46.72;37.22;;;8.00;75.20;;;;;;5093493;28;20506;-89
2022/03/03 09:49:35;;;;;;;49.60;37.97;;;8.10;75.30;;;;;;5091408;28;20044;-88
2022/03/03 09:52:10;;;;;;;51.42;38.75;;;8.10;75.30;;;;;;5091235;28;20052;-89
2022/03/03 09:54:37;;;;;;;50.33;39.60;;;8.20;75.30;;;;;;5090562;28;20093;-87
2022/03/03 09:57:03;;;;;;;48.58;39.67;;;8.40;75.40;;;;;;5091018;28;20097;-88
2022/03/03 09:59:30;;;;;;;55.00;38.75;;;8.40;75.40;;;;;;5091395;28;20048;-87
2022/03/03 10:02:05;;;;;;;47.20;37.33;;;8.50;75.40;;;;;;5092828;28;20044;-88
2022/03/03 10:04:33;;;;;;;46.83;36.55;;;8.70;75.30;;;;;;5090805;28;20056;-87
2022/03/03 10:07:08;;;;;;;46.80;36.33;;;8.80;75.20;;;;;;5089437;28;20464;-86
2022/03/03 10:12:22;;;;;;;47.40;36.50;;;9.00;75.00;;;;;;5091334;28;20056;-86
2022/03/03 10:14:50;;;;;;;47.65;36.90;;;9.20;74.90;;;;;;5091008;28;20040;-85
2022/03/03 10:17:17;;;;;;;46.80;36.33;;;9.30;74.80;;;;;;5089321;28;20051;-85
2022/03/03 10:19:56;;;;;;;44.88;35.80;;;9.40;74.60;;;;;;5088586;28;20051;-86
2022/03/03 10:22:37;;;;;;;48.03;37.22;;;9.60;74.50;;;;;;5090986;28;20582;-86
2022/03/03 10:25:04;;;;;;;47.35;37.28;;;9.70;74.30;;;;;;5090749;28;20509;-87
2022/03/03 10:27:33;;;;;;;51.88;37.70;;;9.80;74.10;;;;;;5091115;28;20521;-88
2022/03/03 10:30:01;;;;;;;48.50;37.08;;;9.90;73.90;;;;;;5090709;28;20036;-88
2022/03/03 10:32:28;;;;;;;45.42;36.00;;;10.00;73.80;;;;;;5091760;28;20494;-87
2022/03/03 10:35:14;;;;;;;47.33;36.38;;;10.20;73.70;;;;;;5092481;28;20390;-86
2022/03/03 10:37:43;;;;;;;46.00;36.80;;;10.30;73.50;;;;;;5090644;28;20101;-86
2022/03/03 10:40:17;;;;;;;45.42;36.20;;;10.40;73.30;;;;;;5090638;28;20044;-85
2022/03/03 10:42:50;;;;;;;49.80;36.97;;;10.50;73.20;;;;;;5088960;28;20087;-86
2022/03/03 10:45:19;;;;;;;54.57;36.67;;;10.60;73.10;;;;;;5090741;28;20044;-86
2022/03/03 10:48:00;;;;;;;43.17;34.28;;;10.70;73.00;;;;;;5074673;28;20048;-87
2022/03/03 10:50:44;;;;;;;46.90;34.00;;;10.90;72.80;;;;;;5089128;28;20229;-86
2022/03/03 10:53:11;;;;;;;48.95;34.88;;;10.90;72.60;;;;;;5092269;28;20048;-86
2022/03/03 10:55:38;;;;;;;42.15;32.85;;;11.10;72.50;;;;;;5090382;28;20509;-86
2022/03/03 10:58:06;;;;;;;44.17;33.67;;;11.20;72.30;;;;;;5090297;28;20105;-86
2022/03/03 11:00:38;;;;;;;42.15;33.40;;;11.30;72.20;;;;;;5090519;28;20066;-87
2022/03/03 11:03:06;;;;;;;45.83;34.00;;;11.40;72.00;;;;;;5090431;28;20055;-86
2022/03/03 11:05:34;;;;;;;43.22;33.70;;;11.50;71.90;;;;;;5090352;28;20529;-86
2022/03/03 11:08:01;;;;;;;45.03;33.20;;;11.60;71.70;;;;;;5092123;28;20138;-85
2022/03/03 11:10:30;;;;;;;43.75;32.45;;;11.70;71.70;;;;;;5090384;28;20078;-85
2022/03/03 11:12:57;;;;;;;42.78;32.55;;;11.80;71.50;;;;;;5089968;28;20055;-85
2022/03/03 11:15:26;;;;;;;43.78;32.00;;;11.90;71.40;;;;;;5090315;28;20048;-85
2022/03/03 11:17:55;;;;;;;42.50;33.15;;;12.00;71.30;;;;;;5090395;28;20054;-85
2022/03/03 11:20:23;;;;;;;48.22;32.28;;;12.10;71.10;;;;;;5091672;28;20044;-85
2022/03/03 11:22:55;;;;;;;43.28;32.45;;;12.20;71.00;;;;;;5089903;28;20079;-85
2022/03/03 11:25:34;;;;;;;43.47;32.05;;;12.30;70.80;;;;;;5089938;28;20102;-85
2022/03/03 11:28:09;;;;;;;45.05;32.85;;;12.30;70.60;;;;;;5089764;28;20052;-85
2022/03/03 11:30:36;;;;;;;40.55;33.28;;;12.40;70.50;;;;;;5090093;28;20056;-85
2022/03/03 11:33:30;;;;;;;47.15;32.80;;;12.40;70.30;;;;;;5090242;28;20047;-87
2022/03/03 11:36:04;;;;;;;45.72;32.63;;;12.50;70.20;;;;;;5075695;28;20062;-86
2022/03/03 11:39:01;;;;;;;41.25;32.53;;;12.60;70.00;;;;;;5090409;28;20501;-86
2022/03/03 11:41:47;;;;;;;46.60;34.72;;;12.60;69.90;;;;;;5088061;28;20505;-85
2022/03/03 11:44:15;;;;;;;40.75;32.25;;;12.60;69.80;;;;;;5092001;28;20044;-85
2022/03/03 11:46:51;;;;;;;42.20;33.70;;;12.70;69.80;;;;;;5089988;28;20044;-85
2022/03/03 11:49:24;;;;;;;45.38;33.42;;;12.70;69.80;;;;;;5090014;28;20055;-85
2022/03/03 11:51:55;;;;;;;44.90;32.92;;;12.80;69.80;;;;;;5089969;28;20113;-85
2022/03/03 11:54:29;;;;;;;42.10;32.33;;;12.80;69.80;;;;;;5089797;28;20051;-85
2022/03/03 11:57:08;;;;;;;45.88;33.67;;;12.80;69.70;;;;;;5089744;28;20040;-86
2022/03/03 11:59:40;;;;;;;38.25;30.90;;;12.90;69.60;;;;;;5090431;28;20572;-86
2022/03/03 12:02:08;;;;;;;40.47;32.25;;;12.90;69.60;;;;;;5090942;28;20044;-86
2022/03/03 12:04:37;;;;;;;36.35;31.15;;;12.90;69.50;;;;;;5089744;28;20048;-87
2022/03/03 12:07:05;;;;;;;40.75;32.75;;;13.00;69.40;;;;;;5089732;28;20044;-87
2022/03/03 12:09:38;;;;;;;40.05;31.63;;;13.00;69.40;;;;;;5089441;28;20105;-85
2022/03/03 12:12:16;;;;;;;39.42;32.65;;;13.10;69.30;;;;;;5089807;28;20426;-86
2022/03/03 12:15:01;;;;;;;43.50;34.25;;;13.10;69.20;;;;;;5089822;28;20048;-86
2022/03/03 12:17:38;;;;;;;42.42;32.20;;;13.20;69.10;;;;;;5088275;28;20151;-86
2022/03/03 12:20:23;;;;;;;42.60;32.10;;;13.20;69.10;;;;;;5094011;28;20094;-87
2022/03/03 12:23:19;;;;;;;39.97;31.02;;;13.20;69.00;;;;;;5095343;28;20044;-88
2022/03/03 12:25:58;;;;;;;39.55;31.02;;;13.30;68.90;;;;;;5091952;28;20056;-87
2022/03/03 12:28:41;;;;;;;38.55;30.52;;;13.20;68.80;;;;;;5093271;28;20040;-87
2022/03/03 12:31:23;;;;;;;38.35;31.17;;;13.30;68.70;;;;;;5088540;28;20460;-87
2022/03/03 12:33:58;;;;;;;40.42;31.83;;;13.30;68.60;;;;;;5093190;28;20044;-86
2022/03/03 12:36:25;;;;;;;40.58;30.80;;;13.40;68.60;;;;;;5091461;28;20046;-88
2022/03/03 12:38:54;;;;;;;44.10;31.30;;;13.40;68.50;;;;;;5092967;28;20097;-90
2022/03/03 12:41:24;;;;;;;36.30;30.90;;;13.40;68.40;;;;;;5094715;28;20059;-89
2022/03/03 12:43:52;;;;;;;38.95;30.48;;;13.40;68.40;;;;;;5093958;28;20122;-89
2022/03/03 12:46:19;;;;;;;42.13;32.13;;;13.50;68.40;;;;;;5093541;28;20138;-88
2022/03/03 12:48:47;;;;;;;36.67;29.15;;;13.50;68.30;;;;;;5093014;28;20135;-89
2022/03/03 12:51:15;;;;;;;41.70;30.90;;;13.60;68.20;;;;;;5092965;28;20047;-88
2022/03/03 12:53:47;;;;;;;37.22;30.02;;;13.60;68.10;;;;;;5092582;28;20078;-87